Time;durP1;ratioP1;P1;durP2;ratioP2;P2;SDS_P1;SDS_P2;PMS_P1;PMS_P2;Temp;Humidity;BMP_temperature;BMP_pressure;BME280_temperature;BME280_humidity;BME280_pressure;Samples;Min_cycle;Max_cycle;Signal;HPM_P1;HPM_P2
2021/08/28 00:01:52;;;;;;;16.65;10.18;;;;;;;14.43;97.10;99073.54;1742486;81;21014;-72
2021/08/28 00:04:22;;;;;;;17.70;10.32;;;;;;;14.43;96.97;99069.40;1745975;80;21435;-73
2021/08/28 00:07:00;;;;;;;18.10;10.95;;;;;;;14.42;96.92;99063.66;1752774;80;21502;-73
2021/08/28 00:09:30;;;;;;;17.60;11.03;;;;;;;14.42;97.51;99045.70;1748466;80;21072;-72
2021/08/28 00:11:59;;;;;;;18.55;10.70;;;;;;;14.42;97.95;99023.61;1764413;80;20876;-72
2021/08/28 00:14:31;;;;;;;17.35;11.38;;;;;;;14.42;97.76;99016.70;1759002;80;20994;-72
2021/08/28 00:17:06;;;;;;;15.88;10.05;;;;;;;14.39;97.34;99016.58;1747205;80;20912;-71
2021/08/28 00:19:37;;;;;;;14.87;10.03;;;;;;;14.32;97.19;99022.71;1774529;80;21406;-71
2021/08/28 00:22:11;;;;;;;18.62;11.00;;;;;;;14.28;97.21;99016.86;1759635;80;21084;-71
2021/08/28 00:24:39;;;;;;;19.07;10.80;;;;;;;14.24;97.32;99018.72;1768992;81;20841;-72
2021/08/28 00:27:09;;;;;;;15.32;10.05;;;;;;;14.23;97.41;99017.92;1766035;80;20928;-71
2021/08/28 00:29:42;;;;;;;16.90;9.55;;;;;;;14.22;97.15;99020.45;1756141;80;20896;-72
2021/08/28 00:32:09;;;;;;;;;;;;;;;14.21;97.29;99018.85;1769197;80;20879;-71
2021/08/28 00:34:46;;;;;;;14.10;8.08;;;;;;;14.21;97.33;99028.52;1750463;80;21157;-72
2021/08/28 00:37:15;;;;;;;16.50;9.25;;;;;;;14.19;97.24;99033.01;1761270;80;21456;-71
2021/08/28 00:39:47;;;;;;;18.90;9.53;;;;;;;14.18;97.04;99041.06;1756147;80;20924;-71
2021/08/28 00:42:19;;;;;;;14.07;8.65;;;;;;;14.20;97.01;99044.85;1745916;80;20932;-72
2021/08/28 00:44:48;;;;;;;17.37;9.00;;;;;;;14.21;96.80;99034.03;1764954;80;20974;-71
2021/08/28 00:47:30;;;;;;;13.72;8.95;;;;;;;14.23;96.53;99027.59;1753208;80;21920;-72
2021/08/28 00:49:59;;;;;;;14.10;8.63;;;;;;;14.24;96.06;99025.05;1770059;80;20932;-71
2021/08/28 00:52:38;;;;;;;12.00;8.33;;;;;;;14.23;96.11;99027.59;1760463;80;20932;-72
2021/08/28 00:55:08;;;;;;;13.70;8.30;;;;;;;14.25;96.05;99025.27;1748690;80;20857;-71
2021/08/28 00:57:39;;;;;;;15.68;8.40;;;;;;;14.26;95.56;99026.88;1759622;80;20974;-72
2021/08/28 01:00:12;;;;;;;11.12;8.13;;;;;;;14.26;95.40;99023.31;1744592;80;23058;-73
2021/08/28 01:02:38;;;;;;;14.33;8.98;;;;;;;14.26;95.64;99019.98;1732680;81;20857;-72
2021/08/28 01:05:10;;;;;;;12.55;7.65;;;;;;;14.27;95.81;99029.87;1690732;83;20985;-72
2021/08/28 01:08:03;;;;;;;15.45;7.80;;;;;;;14.29;95.98;99033.08;1692128;83;21064;-74
2021/08/28 01:10:39;;;;;;;14.63;8.13;;;;;;;14.30;95.97;99031.13;1734184;82;20881;-72
2021/08/28 01:13:13;;;;;;;12.50;7.78;;;;;;;14.30;95.20;99033.30;1704475;82;21452;-72
2021/08/28 01:15:44;;;;;;;10.10;6.83;;;;;;;14.29;95.18;99032.27;1706293;82;21059;-72
2021/08/28 01:18:22;;;;;;;12.37;8.03;;;;;;;14.30;95.38;99036.06;1709731;82;20897;-72
2021/08/28 01:21:18;;;;;;;10.43;7.17;;;;;;;14.32;94.95;99046.75;1690123;83;21050;-73
2021/08/28 01:24:01;;;;;;;11.28;7.58;;;;;;;14.32;94.92;99048.94;1700940;83;20967;-75
2021/08/28 01:27:09;;;;;;;11.53;7.50;;;;;;;14.36;94.82;99044.89;1666679;83;21148;-73
2021/08/28 01:29:40;;;;;;;12.20;7.45;;;;;;;14.37;95.58;99039.59;1731430;82;20980;-73
2021/08/28 01:32:19;;;;;;;13.93;7.20;;;;;;;14.38;95.64;99024.06;1665747;84;21122;-72
2021/08/28 01:34:50;;;;;;;12.95;6.87;;;;;;;14.39;96.05;98999.44;1671017;83;20952;-73
2021/08/28 01:37:21;;;;;;;12.25;6.78;;;;;;;14.42;96.00;99014.52;1748663;80;20845;-73
2021/08/28 01:40:04;;;;;;;14.40;7.05;;;;;;;14.41;95.05;99015.09;1730534;81;21546;-72
2021/08/28 01:42:36;;;;;;;11.30;6.67;;;;;;;14.45;94.99;99010.44;1719423;82;20932;-72
2021/08/28 01:45:11;;;;;;;9.70;6.20;;;;;;;14.47;94.18;99009.52;1764296;80;21024;-72
2021/08/28 01:47:41;;;;;;;10.88;6.92;;;;;;;14.50;93.97;99010.19;1762288;80;21512;-72
2021/08/28 01:50:11;;;;;;;11.17;6.23;;;;;;;14.56;94.03;99014.06;1767785;80;20919;-72
2021/08/28 01:52:46;;;;;;;10.72;6.83;;;;;;;14.57;94.17;99006.80;1742603;80;20864;-73
2021/08/28 01:55:18;;;;;;;10.45;6.42;;;;;;;14.62;94.92;99005.74;1760751;80;28492;-73
2021/08/28 01:57:47;;;;;;;9.43;6.30;;;;;;;14.61;94.92;98996.66;1756820;80;25854;-73
2021/08/28 02:00:36;;;;;;;10.63;6.67;;;;;;;14.61;93.17;98983.42;1733897;81;21027;-73
2021/08/28 02:03:05;;;;;;;12.85;6.42;;;;;;;14.59;93.72;98971.34;1753108;80;21022;-72
2021/08/28 02:05:38;;;;;;;11.93;6.25;;;;;;;14.58;93.99;98958.69;1730336;80;20971;-73
2021/08/28 02:08:10;;;;;;;8.93;6.28;;;;;;;14.55;93.52;98984.27;1770065;80;20936;-74
2021/08/28 02:10:51;;;;;;;9.98;5.70;;;;;;;14.55;92.88;98989.79;1746024;80;20927;-73
2021/08/28 02:13:35;;;;;;;11.33;6.72;;;;;;;14.54;93.31;98985.42;1755706;80;21759;-73
2021/08/28 02:16:11;;;;;;;11.03;6.40;;;;;;;14.55;92.98;98985.64;1730787;81;21451;-73
2021/08/28 02:18:53;;;;;;;9.93;6.42;;;;;;;14.55;93.25;98964.93;1725122;80;21168;-71
2021/08/28 02:21:32;;;;;;;11.12;6.35;;;;;;;14.54;93.83;98968.27;1709100;82;20994;-73
2021/08/28 02:24:14;;;;;;;11.25;6.50;;;;;;;14.54;93.74;98962.75;1740738;81;20901;-72
2021/08/28 02:27:00;;;;;;;9.80;5.55;;;;;;;14.54;93.68;98963.33;1736557;82;20862;-73
2021/08/28 02:29:38;;;;;;;13.15;6.10;;;;;;;14.55;93.04;98977.36;1742246;81;21360;-73
2021/08/28 02:32:08;;;;;;;11.65;5.97;;;;;;;14.56;93.09;98976.20;1748731;82;21179;-73
2021/08/28 02:34:43;;;;;;;10.98;6.50;;;;;;;14.57;92.63;98990.23;1722696;81;21456;-72
2021/08/28 02:37:13;;;;;;;16.23;6.78;;;;;;;14.61;92.47;98987.56;1742968;82;20972;-73
2021/08/28 02:39:45;;;;;;;13.40;6.15;;;;;;;14.63;92.48;98986.63;1726264;81;21154;-73
2021/08/28 02:42:14;;;;;;;9.23;5.40;;;;;;;14.66;92.86;98984.53;1742975;81;20917;-72
2021/08/28 02:44:46;;;;;;;10.30;6.20;;;;;;;14.67;93.42;98986.14;1713897;82;20846;-73
2021/08/28 02:47:21;;;;;;;9.98;6.37;;;;;;;14.65;92.88;98987.08;1727261;81;21540;-74
2021/08/28 02:49:48;;;;;;;9.65;6.17;;;;;;;14.66;93.43;98981.20;1678701;82;20971;-72
2021/08/28 02:52:21;;;;;;;10.25;5.70;;;;;;;14.67;93.22;98986.94;1723925;82;20985;-72
2021/08/28 02:54:55;;;;;;;10.82;6.40;;;;;;;14.68;93.40;98991.89;1721927;81;20925;-73
2021/08/28 02:57:25;;;;;;;9.93;5.80;;;;;;;14.69;93.62;98987.97;1728045;82;21157;-72
2021/08/28 03:00:03;;;;;;;9.15;5.75;;;;;;;14.70;93.36;98989.58;1714979;82;20929;-73
2021/08/28 03:02:33;;;;;;;8.95;6.42;;;;;;;14.72;93.71;98988.64;1732503;82;20874;-71
2021/08/28 03:05:00;;;;;;;8.45;5.85;;;;;;;14.71;94.31;98988.41;1668364;85;21614;-71
2021/08/28 03:07:29;;;;;;;11.85;5.92;;;;;;;14.70;93.83;98994.52;1676480;84;21585;-73
2021/08/28 03:10:03;;;;;;;10.05;5.95;;;;;;;14.72;93.91;98990.82;1736349;82;21151;-72
2021/08/28 03:12:34;;;;;;;10.18;6.30;;;;;;;14.77;94.19;98989.75;1734736;81;20882;-71
2021/08/28 03:15:09;;;;;;;11.12;6.80;;;;;;;14.79;94.12;99001.25;1700291;80;21084;-72
2021/08/28 03:17:40;;;;;;;13.22;7.53;;;;;;;14.82;93.74;99010.20;1710550;81;20987;-72
2021/08/28 03:20:14;;;;;;;9.75;6.10;;;;;;;14.83;93.48;99018.14;1711177;82;20907;-72
2021/08/28 03:22:47;;;;;;;11.15;6.60;;;;;;;14.86;92.91;99013.86;1674132;84;21874;-72
2021/08/28 03:25:16;;;;;;;9.35;6.80;;;;;;;14.86;93.29;99011.91;1655777;84;21005;-72
2021/08/28 03:27:47;;;;;;;15.13;7.10;;;;;;;14.90;92.81;99023.63;1665171;85;20985;-72
2021/08/28 03:30:16;;;;;;;11.40;7.20;;;;;;;14.90;92.83;99020.86;1680836;83;21099;-72
2021/08/28 03:32:45;;;;;;;10.38;6.92;;;;;;;14.91;92.82;99025.23;1694637;83;20976;-71
2021/08/28 03:35:13;;;;;;;11.40;7.60;;;;;;;14.92;93.31;99017.97;1696772;84;21170;-72
2021/08/28 03:37:43;;;;;;;11.08;6.80;;;;;;;14.90;92.76;99031.34;1654688;84;21019;-72
2021/08/28 03:40:15;;;;;;;10.50;7.12;;;;;;;14.87;92.48;99044.48;1692781;84;21015;-72
2021/08/28 03:42:43;;;;;;;10.30;7.20;;;;;;;14.87;92.48;99033.43;1655489;83;21015;-71
2021/08/28 03:45:14;;;;;;;9.88;6.30;;;;;;;14.88;92.65;99041.95;1675861;83;21393;-72
2021/08/28 03:47:48;;;;;;;9.43;6.33;;;;;;;14.91;92.57;99027.99;1717704;81;21417;-72
2021/08/28 03:50:17;;;;;;;10.23;6.10;;;;;;;14.92;91.63;99024.07;1728732;82;20993;-72
2021/08/28 03:52:46;;;;;;;;;;;;;;;14.92;91.85;99013.81;1725962;82;20938;-72
2021/08/28 03:55:15;;;;;;;9.53;6.03;;;;;;;14.92;92.20;99008.29;1717953;81;20131;-71
2021/08/28 03:57:44;;;;;;;12.03;6.78;;;;;;;14.91;92.50;99005.88;1739323;82;21464;-72
2021/08/28 04:00:19;;;;;;;11.10;5.62;;;;;;;14.91;92.74;99014.17;1744373;82;21151;-72
2021/08/28 04:02:50;;;;;;;10.08;6.05;;;;;;;14.92;92.37;99022.11;1747647;82;21464;-72
2021/08/28 04:05:22;;;;;;;7.80;5.55;;;;;;;14.94;92.18;99025.32;1745135;81;21532;-71
2021/08/28 04:07:51;;;;;;;8.15;5.80;;;;;;;14.96;92.19;99020.81;1717056;82;20894;-71
2021/08/28 04:10:23;;;;;;;9.05;5.65;;;;;;;14.97;92.14;99021.84;1739728;82;20953;-72
2021/08/28 04:12:50;;;;;;;9.48;5.87;;;;;;;15.00;92.35;99021.70;1739142;81;21117;-71
2021/08/28 04:15:21;;;;;;;8.85;5.90;;;;;;;15.00;92.57;99011.45;1721853;82;21456;-71
2021/08/28 04:17:53;;;;;;;10.53;6.30;;;;;;;15.00;92.55;99014.80;1742703;81;21484;-71
2021/08/28 04:20:26;;;;;;;11.55;6.22;;;;;;;14.99;92.52;99020.10;1745121;81;21412;-72
2021/08/28 04:22:56;;;;;;;11.25;7.25;;;;;;;15.01;92.51;99032.98;1749185;82;21008;-72
2021/08/28 04:25:39;;;;;;;15.03;8.20;;;;;;;15.03;92.64;99027.29;1696516;82;20930;-72
2021/08/28 04:28:09;;;;;;;9.73;7.10;;;;;;;15.08;92.57;99025.64;1724082;81;21468;-71
2021/08/28 04:30:40;;;;;;;9.50;6.70;;;;;;;15.15;92.62;99029.16;1740889;81;20946;-72
2021/08/28 04:33:08;;;;;;;15.18;9.63;;;;;;;15.20;92.51;99032.45;1737459;82;21064;-71
2021/08/28 04:35:37;;;;;;;12.88;8.65;;;;;;;15.26;92.33;99041.86;1743271;81;20937;-71
2021/08/28 04:38:08;;;;;;;10.72;7.83;;;;;;;15.31;92.05;99042.97;1742748;81;21944;-71
2021/08/28 04:40:38;;;;;;;11.93;7.57;;;;;;;15.35;91.73;99045.23;1693232;84;20974;-72
2021/08/28 04:43:09;;;;;;;10.28;6.10;;;;;;;15.36;91.91;99044.88;1663712;83;21014;-71
2021/08/28 04:45:51;;;;;;;11.30;6.03;;;;;;;15.37;91.92;99047.86;1670190;83;21128;-72
2021/08/28 04:48:24;;;;;;;9.55;6.40;;;;;;;15.36;91.78;99055.94;1695904;83;20900;-71
2021/08/28 04:50:52;;;;;;;;;;;;;;;15.35;91.88;99050.19;1657596;85;21460;-71
2021/08/28 04:53:23;;;;;;;12.98;6.83;;;;;;;15.38;92.08;99051.43;1732822;81;20496;-71
2021/08/28 04:55:52;;;;;;;9.10;6.05;;;;;;;15.39;92.45;99051.65;1734560;81;21437;-71
2021/08/28 04:58:23;;;;;;;9.55;6.10;;;;;;;15.40;92.62;99055.44;1716524;82;21471;-71
2021/08/28 05:01:15;;;;;;;9.85;6.17;;;;;;;15.42;92.94;99057.27;1657346;85;20947;-71
2021/08/28 05:04:03;;;;;;;9.48;6.85;;;;;;;15.45;93.17;99055.16;1626013;86;20912;-70
2021/08/28 05:06:33;;;;;;;10.90;6.55;;;;;;;15.47;93.29;99061.72;1635360;86;20988;-72
2021/08/28 05:09:03;;;;;;;10.00;6.33;;;;;;;15.49;93.60;99058.81;1665630;83;21063;-72
2021/08/28 05:11:35;;;;;;;8.23;6.25;;;;;;;15.51;93.85;99065.38;1718970;82;20921;-72
2021/08/28 05:14:02;;;;;;;;;;;;;;;15.52;94.02;99065.59;1689661;82;21804;-73
2021/08/28 05:16:30;;;;;;;10.23;5.17;;;;;;;15.55;94.27;99063.48;1732261;82;21217;-72
2021/08/28 05:19:00;;;;;;;9.00;6.62;;;;;;;15.57;94.32;99063.96;1700369;82;20987;-72
2021/08/28 05:21:31;;;;;;;10.50;6.53;;;;;;;15.60;94.25;99074.89;1692156;82;20979;-71
2021/08/28 05:24:23;;;;;;;14.47;7.33;;;;;;;15.61;94.34;99071.73;1713525;82;21051;-72
2021/08/28 05:26:55;;;;;;;12.45;9.13;;;;;;;15.65;94.56;99069.85;1720080;82;21538;-72
2021/08/28 05:29:26;;;;;;;12.85;7.50;;;;;;;15.66;94.87;99068.69;1723738;82;22174;-72
2021/08/28 05:31:57;;;;;;;9.45;7.53;;;;;;;15.72;94.99;99069.21;1763769;80;20877;-72
2021/08/28 05:34:26;;;;;;;8.60;6.45;;;;;;;15.80;95.36;99070.39;1757049;80;20895;-72
2021/08/28 05:37:03;;;;;;;9.95;6.50;;;;;;;15.92;94.65;99076.97;1715552;81;21459;-73
2021/08/28 05:39:34;;;;;;;8.10;5.33;;;;;;;16.00;94.61;99082.30;1700024;80;21040;-73
2021/08/28 05:42:03;;;;;;;13.55;5.72;;;;;;;16.07;94.06;99081.64;1755615;80;21384;-73
2021/08/28 05:44:35;;;;;;;14.47;6.28;;;;;;;16.17;94.15;99083.84;1749183;80;21455;-73
2021/08/28 05:47:07;;;;;;;9.23;6.35;;;;;;;16.27;93.79;99085.20;1730630;81;21008;-73
2021/08/28 05:49:36;;;;;;;7.25;5.45;;;;;;;16.33;92.93;99088.69;1728363;80;21106;-71
2021/08/28 05:52:15;;;;;;;8.05;4.65;;;;;;;16.39;93.21;99082.28;1741424;80;21033;-70
2021/08/28 05:54:47;;;;;;;9.85;4.85;;;;;;;16.49;91.29;99090.00;1724169;81;21175;-71
2021/08/28 05:57:20;;;;;;;10.07;4.77;;;;;;;16.65;90.97;99093.52;1748537;80;21144;-71
2021/08/28 05:59:49;;;;;;;6.50;3.60;;;;;;;16.83;88.59;99086.30;1745711;80;21472;-71
2021/08/28 06:02:16;;;;;;;8.73;4.33;;;;;;;16.92;87.81;99090.81;1750592;80;20889;-72
2021/08/28 06:04:48;;;;;;;6.08;4.30;;;;;;;16.95;87.25;99085.33;1741189;80;20951;-72
2021/08/28 06:07:22;;;;;;;7.08;4.03;;;;;;;16.97;86.53;99092.69;1742342;80;21169;-71
2021/08/28 06:10:05;;;;;;;6.22;3.90;;;;;;;16.95;85.98;99096.42;1750906;80;20992;-73
2021/08/28 06:12:49;;;;;;;8.65;4.08;;;;;;;16.92;85.82;99094.97;1746375;80;21011;-73
2021/08/28 06:15:38;;;;;;;5.58;3.98;;;;;;;16.91;85.79;99102.48;1750794;80;21019;-72
2021/08/28 06:18:13;;;;;;;6.20;3.52;;;;;;;16.91;85.96;99107.23;1722912;81;20929;-72
2021/08/28 06:20:45;;;;;;;8.00;4.58;;;;;;;16.92;86.47;99102.70;1737338;80;21170;-72
2021/08/28 06:23:16;;;;;;;9.33;5.20;;;;;;;16.94;86.32;99107.88;1718959;80;21043;-72
2021/08/28 06:26:01;;;;;;;7.12;4.58;;;;;;;16.97;86.66;99109.91;1657953;85;21765;-73
2021/08/28 06:28:31;;;;;;;6.60;4.37;;;;;;;16.95;85.62;99118.59;1714004;80;20982;-73
2021/08/28 06:31:01;;;;;;;12.18;4.80;;;;;;;16.91;85.75;99123.28;1740738;80;21525;-72
2021/08/28 06:33:33;;;;;;;5.85;3.77;;;;;;;16.94;86.63;99123.92;1732050;81;21028;-72
2021/08/28 06:36:03;;;;;;;7.28;4.20;;;;;;;17.08;86.51;99125.58;1757005;80;21011;-72
2021/08/28 06:38:53;;;;;;;9.63;4.33;;;;;;;17.15;84.97;99133.22;1720607;80;20984;-73
2021/08/28 06:41:28;;;;;;;6.92;4.62;;;;;;;17.16;84.81;99136.20;1681399;83;21540;-72
2021/08/28 06:44:19;;;;;;;5.78;3.95;;;;;;;17.19;84.64;99138.83;1732884;80;21011;-72
2021/08/28 06:47:06;;;;;;;5.65;4.08;;;;;;;17.24;84.53;99134.36;1725706;82;21090;-72
2021/08/28 06:49:52;;;;;;;4.70;3.62;;;;;;;17.29;84.08;99138.22;1666160;84;21008;-71
2021/08/28 06:52:41;;;;;;;4.10;2.65;;;;;;;17.27;81.45;99144.13;1706601;82;20988;-72
2021/08/28 06:55:34;;;;;;;7.40;2.87;;;;;;;17.19;80.78;99154.08;1747147;80;20991;-73
2021/08/28 06:58:18;;;;;;;3.35;2.60;;;;;;;17.08;79.73;99154.69;1722928;82;21086;-74
2021/08/28 07:01:04;;;;;;;3.50;2.65;;;;;;;16.95;80.17;99153.84;1736144;81;21065;-73
2021/08/28 07:03:55;;;;;;;4.10;2.60;;;;;;;16.87;80.07;99164.58;1730372;81;21503;-72
2021/08/28 07:06:29;;;;;;;3.75;2.20;;;;;;;16.81;80.19;99171.00;1738057;81;20874;-72
2021/08/28 07:09:02;;;;;;;5.35;2.00;;;;;;;16.92;79.92;99172.02;1729431;81;21495;-73
2021/08/28 07:11:27;;;;;;;4.10;1.90;;;;;;;17.13;79.07;99170.23;1714881;81;21495;-72
2021/08/28 07:13:58;;;;;;;2.10;1.77;;;;;;;17.28;77.44;99165.73;1741286;80;21520;-74
2021/08/28 07:16:29;;;;;;;5.90;2.10;;;;;;;17.29;76.59;99181.22;1734846;80;21021;-73
2021/08/28 07:19:00;;;;;;;5.60;2.50;;;;;;;17.25;75.98;99170.64;1716218;82;20940;-73
2021/08/28 07:21:30;;;;;;;3.58;2.70;;;;;;;17.20;77.31;99184.81;1728503;81;20916;-73
2021/08/28 07:24:01;;;;;;;2.90;1.87;;;;;;;17.20;77.03;99188.39;1731297;81;21009;-73
2021/08/28 07:26:33;;;;;;;7.70;1.72;;;;;;;17.22;76.18;99191.59;1744995;81;21088;-73
2021/08/28 07:29:23;;;;;;;6.20;1.60;;;;;;;17.19;75.56;99187.37;1656239;85;20976;-73
2021/08/28 07:31:50;;;;;;;2.20;1.60;;;;;;;17.13;74.78;99189.64;1637071;86;21071;-72
2021/08/28 07:34:23;;;;;;;3.12;2.00;;;;;;;17.11;75.48;99195.55;1625262;84;21507;-72
2021/08/28 07:36:54;;;;;;;1.75;1.42;;;;;;;17.12;76.30;99197.16;1687821;83;21078;-72
2021/08/28 07:39:24;;;;;;;3.22;1.55;;;;;;;17.13;75.99;99201.54;1677359;84;21172;-72
2021/08/28 07:41:59;;;;;;;4.03;1.62;;;;;;;17.14;76.83;99203.73;1637704;85;21119;-72
2021/08/28 07:44:27;;;;;;;2.77;1.85;;;;;;;17.21;76.54;99208.61;1700707;83;21046;-72
2021/08/28 07:46:58;;;;;;;2.87;1.40;;;;;;;17.28;76.41;99197.64;1683699;83;21033;-72
2021/08/28 07:49:37;;;;;;;2.08;1.62;;;;;;;17.37;75.74;99200.36;1696617;82;21043;-73
2021/08/28 07:52:11;;;;;;;3.72;1.87;;;;;;;17.43;74.08;99200.86;1709265;82;21765;-72
2021/08/28 07:54:46;;;;;;;1.77;1.57;;;;;;;17.46;73.92;99197.34;1691159;82;21094;-71
2021/08/28 07:57:17;;;;;;;2.30;1.50;;;;;;;17.55;73.05;99207.61;1714583;82;21181;-71
2021/08/28 07:59:50;;;;;;;4.37;1.67;;;;;;;17.66;72.76;99201.69;1739883;81;21006;-71
2021/08/28 08:02:19;;;;;;;1.98;1.70;;;;;;;17.84;72.48;99206.73;1748193;81;21055;-73
2021/08/28 08:04:50;;;;;;;2.10;1.60;;;;;;;17.94;71.67;99205.49;1729442;81;21657;-73
2021/08/28 08:07:28;;;;;;;3.55;1.98;;;;;;;17.98;70.97;99211.09;1750165;80;21063;-73
2021/08/28 08:09:59;;;;;;;2.35;1.45;;;;;;;17.96;71.37;99217.61;1741040;81;21011;-72
2021/08/28 08:12:52;;;;;;;4.10;1.40;;;;;;;17.96;71.52;99223.17;1750025;81;20975;-73
2021/08/28 08:15:40;;;;;;;2.87;1.60;;;;;;;18.05;71.83;99225.90;1736825;81;21018;-73
2021/08/28 08:18:24;;;;;;;3.15;1.75;;;;;;;18.19;70.83;99222.54;1724616;81;20984;-73
2021/08/28 08:21:11;;;;;;;2.77;1.50;;;;;;;18.42;69.06;99214.94;1653668;84;21186;-72
2021/08/28 08:23:48;;;;;;;1.80;1.50;;;;;;;18.74;68.42;99216.76;1615689;84;21093;-73
2021/08/28 08:26:17;;;;;;;3.52;1.70;;;;;;;19.20;65.69;99214.28;1696027;81;21011;-72
2021/08/28 08:29:09;;;;;;;3.72;1.32;;;;;;;19.44;64.04;99227.66;1750383;81;21122;-72
2021/08/28 08:31:41;;;;;;;3.98;1.50;;;;;;;19.53;63.08;99224.00;1744975;81;21081;-72
2021/08/28 08:34:28;;;;;;;3.17;1.77;;;;;;;19.65;63.99;99227.87;1745138;81;20979;-73
2021/08/28 08:36:59;;;;;;;2.15;1.20;;;;;;;20.00;62.73;99221.00;1716262;81;21491;-73
2021/08/28 08:39:27;;;;;;;3.98;1.57;;;;;;;20.31;62.33;99227.37;1744434;82;21503;-72
2021/08/28 08:42:01;;;;;;;3.35;1.92;;;;;;;20.69;59.62;99221.84;1748062;81;21582;-72
2021/08/28 08:44:38;;;;;;;3.00;1.70;;;;;;;21.06;60.04;99222.16;1692096;82;21102;-72
2021/08/28 08:47:09;;;;;;;3.87;1.57;;;;;;;21.39;58.42;99223.25;1735739;80;21033;-72
2021/08/28 08:49:38;;;;;;;2.25;1.72;;;;;;;21.83;57.86;99228.30;1729945;81;21026;-72
2021/08/28 08:52:08;;;;;;;2.02;1.40;;;;;;;22.19;56.30;99225.69;1736762;81;21514;-72
2021/08/28 08:54:36;;;;;;;9.10;1.32;;;;;;;22.23;55.54;99223.69;1752978;80;21070;-72
2021/08/28 08:57:07;;;;;;;1.80;1.40;;;;;;;22.14;54.65;99230.29;1755870;80;21938;-72
2021/08/28 08:59:37;;;;;;;1.40;1.30;;;;;;;22.22;55.36;99227.69;1721918;81;21026;-72
2021/08/28 09:02:06;;;;;;;3.00;1.10;;;;;;;22.48;54.39;99232.64;1719563;81;20982;-72
2021/08/28 09:04:51;;;;;;;2.05;1.20;;;;;;;22.74;51.96;99229.34;1742774;81;20987;-73
2021/08/28 09:07:26;;;;;;;1.20;1.00;;;;;;;22.96;51.61;99225.89;1699987;81;37453;-73
2021/08/28 09:09:56;;;;;;;2.40;1.22;;;;;;;23.12;51.46;99229.59;1765748;80;22174;-73
2021/08/28 09:12:41;;;;;;;1.52;1.20;;;;;;;23.29;50.59;99232.30;1766145;80;21016;-73
2021/08/28 09:15:14;;;;;;;4.53;1.32;;;;;;;23.46;49.97;99239.61;1767267;80;21046;-72
2021/08/28 09:17:45;;;;;;;1.52;1.40;;;;;;;23.54;50.52;99244.78;1752063;80;21102;-71
2021/08/28 09:20:24;;;;;;;2.17;1.50;;;;;;;23.63;50.03;99253.53;1693598;82;21132;-71
2021/08/28 09:23:12;;;;;;;3.33;1.32;;;;;;;23.52;49.64;99240.16;1718020;82;21038;-73
2021/08/28 09:25:39;;;;;;;1.98;1.32;;;;;;;23.50;49.76;99250.19;1728659;80;21514;-72
2021/08/28 09:28:15;;;;;;;1.50;1.17;;;;;;;23.74;51.00;99251.23;1716681;82;20943;-72
2021/08/28 09:30:49;;;;;;;1.92;1.07;;;;;;;24.20;47.97;99253.06;1744462;81;21012;-73
2021/08/28 09:33:21;;;;;;;2.25;1.22;;;;;;;24.43;46.31;99244.64;1726024;81;21059;-72
2021/08/28 09:35:52;;;;;;;2.95;1.42;;;;;;;24.56;47.84;99247.11;1759075;80;21495;-72
2021/08/28 09:38:23;;;;;;;1.62;1.30;;;;;;;24.66;46.57;99253.22;1736451;80;20947;-71
2021/08/28 09:40:56;;;;;;;2.72;1.20;;;;;;;24.74;46.85;99256.74;1744835;81;26612;-71
2021/08/28 09:43:25;;;;;;;2.90;1.15;;;;;;;24.84;46.19;99255.83;1712977;82;21009;-71
2021/08/28 09:45:56;;;;;;;1.25;1.12;;;;;;;24.96;48.06;99244.84;1707860;81;21547;-71
2021/08/28 09:48:29;;;;;;;2.22;1.00;;;;;;;25.24;47.04;99245.70;1723649;82;21152;-71
2021/08/28 09:51:04;;;;;;;1.75;1.30;;;;;;;25.53;44.47;99238.44;1742382;80;21130;-71
2021/08/28 09:53:34;;;;;;;1.95;1.70;;;;;;;25.62;44.38;99251.36;1728571;82;22222;-72
2021/08/28 09:56:08;;;;;;;3.67;2.10;;;;;;;25.48;43.64;99245.94;1732783;80;20896;-72
2021/08/28 09:58:41;;;;;;;2.35;1.30;;;;;;;25.23;44.50;99248.33;1749137;80;21122;-71
2021/08/28 10:01:14;;;;;;;2.58;1.10;;;;;;;25.07;46.39;99250.33;1755416;80;21159;-72
2021/08/28 10:03:47;;;;;;;2.62;1.55;;;;;;;24.84;45.26;99255.19;1753228;80;21629;-72
2021/08/28 10:06:15;;;;;;;2.33;1.12;;;;;;;24.38;45.98;99264.13;1752751;80;21523;-72
2021/08/28 10:08:49;;;;;;;1.30;1.20;;;;;;;23.96;45.72;99268.09;1736418;80;20972;-72
2021/08/28 10:11:18;;;;;;;1.30;1.20;;;;;;;23.95;47.37;99267.89;1730528;81;21093;-72
2021/08/28 10:13:51;;;;;;;2.47;1.57;;;;;;;24.02;46.55;99276.25;1725721;81;20981;-73
2021/08/28 10:16:22;;;;;;;1.20;1.10;;;;;;;24.22;47.06;99275.88;1723456;81;21577;-72
2021/08/28 10:18:56;;;;;;;1.77;1.22;;;;;;;24.42;46.91;99278.91;1718282;81;21078;-71
2021/08/28 10:21:27;;;;;;;3.90;1.47;;;;;;;24.85;46.22;99275.64;1741981;80;21165;-71
2021/08/28 10:23:58;;;;;;;6.03;1.37;;;;;;;25.32;45.65;99271.88;1732344;82;21063;-72
2021/08/28 10:26:25;;;;;;;3.22;1.30;;;;;;;25.54;45.16;99265.33;1686614;82;21220;-72
2021/08/28 10:29:01;;;;;;;1.32;1.20;;;;;;;25.60;45.06;99272.67;1719851;81;20932;-72
2021/08/28 10:31:29;;;;;;;3.17;1.20;;;;;;;25.78;44.15;99269.63;1697633;83;21099;-72
2021/08/28 10:34:05;;;;;;;1.40;1.30;;;;;;;25.85;44.19;99260.48;1716055;82;21005;-71
2021/08/28 10:36:35;;;;;;;1.55;1.20;;;;;;;26.03;42.19;99264.38;1675608;83;21298;-70
2021/08/28 10:39:07;;;;;;;2.60;1.70;;;;;;;26.18;40.97;99276.20;1703962;82;21132;-71
2021/08/28 10:41:40;;;;;;;6.62;2.27;;;;;;;26.15;41.41;99272.83;1686213;83;21007;-72
2021/08/28 10:44:09;;;;;;;3.20;1.50;;;;;;;26.03;41.65;99281.26;1694465;83;21000;-72
2021/08/28 10:46:41;;;;;;;1.77;1.57;;;;;;;25.91;42.25;99276.26;1738653;80;20954;-72
2021/08/28 10:49:13;;;;;;;1.87;1.40;;;;;;;25.82;41.54;99281.62;1665715;83;21006;-72
2021/08/28 10:51:43;;;;;;;2.60;1.60;;;;;;;25.95;42.00;99291.86;1707760;83;21102;-71
2021/08/28 10:54:13;;;;;;;2.92;1.77;;;;;;;26.05;39.82;99288.66;1711268;83;21062;-72
2021/08/28 10:56:56;;;;;;;1.10;1.00;;;;;;;25.78;40.01;99285.09;1714036;82;21096;-72
2021/08/28 10:59:43;;;;;;;6.40;1.42;;;;;;;25.69;42.13;99272.17;1670562;83;21053;-72
2021/08/28 11:02:14;;;;;;;2.80;1.10;;;;;;;25.79;43.22;99274.03;1656873;85;21711;-72
2021/08/28 11:04:52;;;;;;;1.92;1.20;;;;;;;26.09;41.55;99281.57;1683894;84;21038;-72
2021/08/28 11:07:26;;;;;;;3.08;1.60;;;;;;;26.27;41.10;99277.24;1680159;85;20959;-72
2021/08/28 11:10:17;;;;;;;2.10;1.50;;;;;;;26.26;40.18;99281.28;1740201;80;20987;-72
2021/08/28 11:13:05;;;;;;;2.25;1.27;;;;;;;26.12;40.32;99275.89;1743741;80;21495;-72
2021/08/28 11:15:42;;;;;;;1.55;1.32;;;;;;;26.05;40.36;99273.19;1710996;81;21565;-71
2021/08/28 11:18:39;;;;;;;1.35;1.10;;;;;;;26.02;39.68;99275.45;1725451;81;21543;-72
2021/08/28 11:21:08;;;;;;;1.57;1.30;;;;;;;26.10;41.39;99274.11;1745114;81;21989;-71
2021/08/28 11:23:44;;;;;;;1.50;1.27;;;;;;;26.48;40.29;99272.49;1739205;81;20961;-72
2021/08/28 11:26:19;;;;;;;1.42;1.20;;;;;;;26.55;40.04;99283.01;1720982;82;20876;-73
2021/08/28 11:28:50;;;;;;;2.12;1.20;;;;;;;26.32;39.19;99278.80;1738439;80;20932;-72
2021/08/28 11:31:20;;;;;;;1.75;1.20;;;;;;;26.13;40.94;99280.29;1731640;81;20936;-71
2021/08/28 11:33:54;;;;;;;2.42;1.40;;;;;;;26.08;40.68;99279.98;1726545;82;21652;-72
2021/08/28 11:36:21;;;;;;;2.50;1.50;;;;;;;26.00;40.76;99287.73;1697317;80;20930;-72
2021/08/28 11:38:57;;;;;;;1.30;1.20;;;;;;;25.93;41.26;99280.84;1741820;80;21004;-72
2021/08/28 11:41:27;;;;;;;1.30;1.20;;;;;;;26.06;41.80;99295.88;1763497;80;20877;-71
2021/08/28 11:43:59;;;;;;;2.02;1.32;;;;;;;26.27;41.17;99285.68;1765694;80;21127;-72
2021/08/28 11:46:31;;;;;;;2.02;1.57;;;;;;;26.60;40.52;99288.12;1763021;80;21050;-73
2021/08/28 11:49:01;;;;;;;3.40;1.27;;;;;;;26.79;38.73;99288.58;1766324;80;21145;-71
2021/08/28 11:51:30;;;;;;;1.57;1.32;;;;;;;26.87;40.24;99288.62;1766755;80;20955;-71
2021/08/28 11:54:10;;;;;;;;;;;;;;;27.13;39.21;99278.48;1762094;80;21106;-71
2021/08/28 11:56:33;;;;;;;3.02;1.30;;;;;;;27.22;38.09;99282.28;1754733;80;21083;-72
2021/08/28 11:59:06;;;;;;;2.42;1.90;;;;;;;27.20;39.44;99285.35;1749022;80;21546;-72
2021/08/28 12:01:43;;;;;;;2.10;1.50;;;;;;;27.30;38.33;99295.61;1711592;81;21075;-73
2021/08/28 12:04:16;;;;;;;1.45;1.30;;;;;;;27.32;38.22;99284.69;1673795;83;21119;-71